createdAt,value
2019-02-11T00:01:54.196Z,2.00
2019-02-11T00:04:24.674Z,1.50
2019-02-11T00:06:54.891Z,1.63
2019-02-11T00:09:25.002Z,1.87
2019-02-11T00:11:55.220Z,1.80
2019-02-11T00:14:25.402Z,1.60
2019-02-11T00:16:55.677Z,1.60
2019-02-11T00:19:25.793Z,1.67
2019-02-11T00:21:55.925Z,1.20
2019-02-11T00:24:26.047Z,1.57
2019-02-11T00:26:56.191Z,1.30
2019-02-11T00:29:26.334Z,1.37
2019-02-11T00:31:56.537Z,1.30
2019-02-11T00:34:26.634Z,1.50
2019-02-11T00:36:56.829Z,2.00
2019-02-11T00:39:27.080Z,1.40
2019-02-11T00:41:57.318Z,1.40
2019-02-11T00:44:27.552Z,1.60
2019-02-11T00:46:57.714Z,1.50
2019-02-11T00:49:27.897Z,1.50
2019-02-11T00:51:58.401Z,1.93
2019-02-11T00:54:28.614Z,1.43
2019-02-11T00:56:58.843Z,1.13
2019-02-11T00:59:28.971Z,1.40
2019-02-11T01:01:59.086Z,1.17
2019-02-11T01:04:29.251Z,1.60
2019-02-11T01:06:59.439Z,1.33
2019-02-11T01:09:29.941Z,1.40
2019-02-11T01:12:00.492Z,1.27
2019-02-11T01:14:30.718Z,1.33
2019-02-11T01:17:00.860Z,1.40
2019-02-11T01:19:31.163Z,1.50
2019-02-11T01:22:01.403Z,1.50
2019-02-11T01:24:31.834Z,1.40
2019-02-11T01:27:02.030Z,1.13
2019-02-11T01:29:32.252Z,1.23
2019-02-11T01:32:02.396Z,1.43
2019-02-11T01:34:32.888Z,1.30
2019-02-11T01:37:03.208Z,1.50
2019-02-11T01:39:33.300Z,1.37
2019-02-11T01:42:03.525Z,1.23
2019-02-11T01:44:33.677Z,1.20
2019-02-11T01:47:03.780Z,1.10
2019-02-11T01:49:33.974Z,1.60
2019-02-11T01:52:04.151Z,1.70
2019-02-11T01:54:34.400Z,1.50
2019-02-11T01:57:04.488Z,1.80
2019-02-11T01:59:34.638Z,1.70
2019-02-11T02:02:04.802Z,1.50
2019-02-11T02:04:34.956Z,1.67
2019-02-11T02:07:05.130Z,2.13
2019-02-11T02:09:35.326Z,1.83
2019-02-11T02:12:05.511Z,1.90
2019-02-11T02:14:35.647Z,2.07
2019-02-11T02:17:05.822Z,2.20
2019-02-11T02:19:36.002Z,2.23
2019-02-11T02:22:06.183Z,2.17
2019-02-11T02:24:36.754Z,2.47
2019-02-11T02:27:06.977Z,2.47
2019-02-11T02:29:37.584Z,2.30
2019-02-11T02:32:07.748Z,2.30
2019-02-11T02:34:37.834Z,2.30
2019-02-11T02:37:07.997Z,2.37
2019-02-11T02:39:38.502Z,2.70
2019-02-11T02:42:08.612Z,2.30
2019-02-11T02:44:38.877Z,2.77
2019-02-11T02:47:09.045Z,2.40
2019-02-11T02:49:39.250Z,3.10
2019-02-11T02:52:09.426Z,2.77
2019-02-11T02:54:39.939Z,2.70
2019-02-11T02:57:10.107Z,2.90
2019-02-11T02:59:40.232Z,3.00
2019-02-11T03:02:10.524Z,2.80
2019-02-11T03:04:40.762Z,2.47
2019-02-11T03:07:10.977Z,2.27
2019-02-11T03:09:41.067Z,2.43
2019-02-11T03:12:11.288Z,2.20
2019-02-11T03:14:41.505Z,2.63
2019-02-11T03:17:12.093Z,2.30
2019-02-11T03:19:42.347Z,2.13
2019-02-11T03:22:12.482Z,2.20
2019-02-11T03:24:42.648Z,2.10
2019-02-11T03:27:12.866Z,2.20
2019-02-11T03:29:42.965Z,2.07
2019-02-11T03:32:13.165Z,2.10
2019-02-11T03:34:43.271Z,2.07
2019-02-11T03:37:13.420Z,2.00
2019-02-11T03:39:43.856Z,2.50
2019-02-11T03:42:14.112Z,2.40
2019-02-11T03:44:44.197Z,2.30
2019-02-11T03:47:14.330Z,2.47
2019-02-11T03:49:44.423Z,2.53
2019-02-11T03:52:14.671Z,2.80
2019-02-11T03:54:44.906Z,2.43
2019-02-11T03:57:15.149Z,2.70
2019-02-11T03:59:45.285Z,2.80
2019-02-11T04:02:15.450Z,2.80
2019-02-11T04:04:45.598Z,3.30
2019-02-11T04:07:15.806Z,2.80
2019-02-11T04:09:46.061Z,2.60
2019-02-11T04:12:16.318Z,3.27
2019-02-11T04:14:46.564Z,3.93
2019-02-11T04:17:17.176Z,3.90
2019-02-11T04:19:47.307Z,4.57
2019-02-11T04:22:17.447Z,4.73
2019-02-11T04:24:47.742Z,4.13
2019-02-11T04:27:18.356Z,4.30
2019-02-11T04:29:48.465Z,4.30
2019-02-11T04:32:18.621Z,4.57
2019-02-11T04:34:48.775Z,4.67
2019-02-11T04:37:18.918Z,4.50
2019-02-11T04:39:49.433Z,3.93
2019-02-11T04:42:19.528Z,4.13
2019-02-11T04:44:49.736Z,4.17
2019-02-11T04:47:19.822Z,4.27
2019-02-11T04:49:50.811Z,4.70
2019-02-11T04:52:21.003Z,4.60
2019-02-11T04:54:51.135Z,5.50
2019-02-11T04:57:21.234Z,4.80
2019-02-11T04:59:51.267Z,4.70
2019-02-11T05:02:21.438Z,4.23
2019-02-11T05:04:51.767Z,4.70
2019-02-11T05:07:22.274Z,4.80
2019-02-11T05:09:52.233Z,5.23
2019-02-11T05:12:22.255Z,4.60
2019-02-11T05:14:52.250Z,4.90
2019-02-11T05:17:22.284Z,5.07
2019-02-11T05:19:52.346Z,5.13
2019-02-11T05:22:22.381Z,4.30
2019-02-11T05:24:52.495Z,4.67
2019-02-11T05:27:22.462Z,4.20
2019-02-11T05:29:52.585Z,4.20
2019-02-11T05:32:22.737Z,3.70
2019-02-11T05:34:52.905Z,4.63
2019-02-11T05:37:23.112Z,3.80
2019-02-11T05:39:53.617Z,3.57
2019-02-11T05:42:23.750Z,4.13
2019-02-11T05:44:54.352Z,3.87
2019-02-11T05:47:24.549Z,3.73
2019-02-11T05:49:54.762Z,3.90
2019-02-11T05:52:24.970Z,3.50
2019-02-11T05:54:55.180Z,2.97
2019-02-11T05:57:25.354Z,3.07
2019-02-11T05:59:56.232Z,3.50
2019-02-11T06:02:26.472Z,3.03
2019-02-11T06:04:56.645Z,3.17
2019-02-11T06:07:26.759Z,2.77
2019-02-11T06:09:56.936Z,3.37
2019-02-11T06:12:27.029Z,3.10
2019-02-11T06:15:03.977Z,3.20
2019-02-11T06:17:29.180Z,3.53
2019-02-11T06:19:59.347Z,2.80
2019-02-11T06:22:29.490Z,2.57
2019-02-11T06:24:59.650Z,3.10
2019-02-11T06:27:29.753Z,3.00
2019-02-11T06:29:59.977Z,2.80
2019-02-11T06:32:30.047Z,3.10
2019-02-11T06:35:00.397Z,3.03
2019-02-11T06:37:30.563Z,2.80
2019-02-11T06:40:00.823Z,3.10
2019-02-11T06:42:31.019Z,3.27
2019-02-11T06:45:01.231Z,3.57
2019-02-11T06:47:31.550Z,2.87
2019-02-11T06:50:01.734Z,3.10
2019-02-11T06:52:31.950Z,4.00
2019-02-11T06:55:02.182Z,4.87
2019-02-11T06:57:32.335Z,3.13
2019-02-11T07:00:02.606Z,3.07
2019-02-11T07:02:33.614Z,3.63
2019-02-11T07:05:03.791Z,3.10
2019-02-11T07:07:33.855Z,4.00
2019-02-11T07:10:04.218Z,3.00
2019-02-11T07:12:34.390Z,3.60
2019-02-11T07:15:04.714Z,3.70
2019-02-11T07:17:34.841Z,3.10
2019-02-11T07:20:05.207Z,3.00
2019-02-11T07:22:35.554Z,3.00
2019-02-11T07:25:05.718Z,3.00
2019-02-11T07:27:35.835Z,3.10
2019-02-11T07:30:06.482Z,3.63
2019-02-11T07:32:36.758Z,3.20
2019-02-11T07:35:06.987Z,3.33
2019-02-11T07:37:37.270Z,3.73
2019-02-11T07:40:08.093Z,3.30
2019-02-11T07:42:43.314Z,2.80
2019-02-11T07:45:30.074Z,3.37
2019-02-11T07:47:58.239Z,6.30
2019-02-11T07:50:28.454Z,3.60
2019-02-11T07:52:58.558Z,3.70
2019-02-11T07:55:28.715Z,3.10
2019-02-11T07:57:58.899Z,3.20
2019-02-11T08:00:29.046Z,3.33
2019-02-11T08:02:59.176Z,3.73
2019-02-11T08:05:29.413Z,3.50
2019-02-11T08:07:59.551Z,3.60
2019-02-11T08:10:29.713Z,3.53
2019-02-11T08:12:59.812Z,3.17
2019-02-11T08:15:38.063Z,3.83
2019-02-11T08:18:01.836Z,4.03
2019-02-11T08:20:32.116Z,3.50
2019-02-11T08:23:02.184Z,3.60
2019-02-11T08:25:32.446Z,3.60
2019-02-11T08:28:02.563Z,3.80
2019-02-11T08:30:32.768Z,3.60
2019-02-11T08:33:02.930Z,3.83
2019-02-11T08:35:33.085Z,4.30
2019-02-11T08:38:03.251Z,3.90
2019-02-11T08:40:33.389Z,3.73
2019-02-11T08:43:03.534Z,4.33
2019-02-11T08:45:33.652Z,3.50
2019-02-11T08:48:04.715Z,3.90
2019-02-11T08:50:34.790Z,4.20
2019-02-11T08:53:05.088Z,3.83
2019-02-11T08:55:35.262Z,4.50
2019-02-11T08:58:05.370Z,3.87
2019-02-11T09:00:35.557Z,3.60
2019-02-11T09:03:05.833Z,4.37
2019-02-11T09:05:35.899Z,3.90
2019-02-11T09:08:06.065Z,3.77
2019-02-11T09:10:36.243Z,4.50
2019-02-11T09:13:06.401Z,3.77
2019-02-11T09:15:36.901Z,4.20
2019-02-11T09:18:07.080Z,4.10
2019-02-11T09:20:37.175Z,4.17
2019-02-11T09:23:07.254Z,4.23
2019-02-11T09:25:37.496Z,3.80
2019-02-11T09:28:07.639Z,3.60
2019-02-11T09:30:37.755Z,3.40
2019-02-11T09:33:07.941Z,4.50
2019-02-11T09:35:38.113Z,4.10
2019-02-11T09:38:08.270Z,4.40
2019-02-11T09:40:38.401Z,3.77
2019-02-11T09:43:08.609Z,4.57
2019-02-11T09:45:38.813Z,4.50
2019-02-11T09:48:08.979Z,4.17
2019-02-11T09:50:45.226Z,4.07
2019-02-11T09:53:15.318Z,4.50
2019-02-11T09:55:46.090Z,4.67
2019-02-11T09:58:16.271Z,4.13
2019-02-11T10:00:46.420Z,3.57
2019-02-11T10:03:16.552Z,3.70
2019-02-11T10:05:46.723Z,3.87
2019-02-11T10:08:16.847Z,4.60
2019-02-11T10:10:47.040Z,3.77
2019-02-11T10:13:17.454Z,4.10
2019-02-11T10:15:47.650Z,3.43
2019-02-11T10:18:17.791Z,4.10
2019-02-11T10:20:48.003Z,3.27
2019-02-11T10:23:18.058Z,4.13
2019-02-11T10:25:48.162Z,3.67
2019-02-11T10:28:18.278Z,3.73
2019-02-11T10:30:48.471Z,3.20
2019-02-11T10:33:18.611Z,3.80
2019-02-11T10:35:49.347Z,4.03
2019-02-11T10:38:19.534Z,3.10
2019-02-11T10:40:50.777Z,2.97
2019-02-11T10:43:20.940Z,3.97
2019-02-11T10:45:51.094Z,3.43
2019-02-11T10:48:21.198Z,3.50
2019-02-11T10:50:51.307Z,3.00
2019-02-11T10:53:21.463Z,3.60
2019-02-11T10:55:51.552Z,2.80
2019-02-11T10:58:21.678Z,3.07
2019-02-11T11:00:52.074Z,3.67
2019-02-11T11:03:22.203Z,3.23
2019-02-11T11:05:52.465Z,4.03
2019-02-11T11:08:22.574Z,3.67
2019-02-11T11:10:52.816Z,2.90
2019-02-11T11:13:23.259Z,3.33
2019-02-11T11:15:53.460Z,3.30
2019-02-11T11:18:23.718Z,2.83
2019-02-11T11:20:54.909Z,2.90
2019-02-11T11:23:25.348Z,3.27
2019-02-11T11:25:55.514Z,3.47
2019-02-11T11:28:25.552Z,3.50
2019-02-11T11:30:55.705Z,3.07
2019-02-11T11:33:25.870Z,3.97
2019-02-11T11:35:56.013Z,3.47
2019-02-11T11:38:26.092Z,3.70
2019-02-11T11:40:56.266Z,3.40
2019-02-11T11:43:26.425Z,3.93
2019-02-11T11:45:56.899Z,3.43
2019-02-11T11:48:27.038Z,2.57
2019-02-11T11:50:57.546Z,2.70
2019-02-11T11:53:27.605Z,3.30
2019-02-11T11:56:02.129Z,3.17
2019-02-11T11:58:29.899Z,2.90
2019-02-11T12:01:00.127Z,3.53
2019-02-11T12:03:30.286Z,3.23
2019-02-11T12:06:00.531Z,3.73
2019-02-11T12:08:30.574Z,2.67
2019-02-11T12:11:00.710Z,3.20
2019-02-11T12:13:30.783Z,2.70
2019-02-11T12:16:00.899Z,2.97
2019-02-11T12:18:31.047Z,2.63
2019-02-11T12:21:01.237Z,2.50
2019-02-11T12:23:31.438Z,2.17
2019-02-11T12:26:01.627Z,2.73
2019-02-11T12:28:31.783Z,2.77
2019-02-11T12:31:01.937Z,3.00
2019-02-11T12:33:32.114Z,2.53
2019-02-11T12:36:02.273Z,2.60
2019-02-11T12:38:33.422Z,2.83
2019-02-11T12:41:03.524Z,2.60
2019-02-11T12:43:33.663Z,2.70
2019-02-11T12:46:03.758Z,2.47
2019-02-11T12:48:33.952Z,2.33
2019-02-11T12:51:04.265Z,2.33
2019-02-11T12:53:34.372Z,2.70
2019-02-11T12:56:04.532Z,2.97
2019-02-11T12:58:34.822Z,2.67
2019-02-11T13:01:05.128Z,2.47
2019-02-11T13:03:35.335Z,2.33
2019-02-11T13:06:05.566Z,2.40
2019-02-11T13:08:35.971Z,2.77
2019-02-11T13:11:06.323Z,2.60
2019-02-11T13:13:36.560Z,3.13
2019-02-11T13:16:06.816Z,2.97
2019-02-11T13:18:39.244Z,2.70
2019-02-11T13:21:09.775Z,3.13
2019-02-11T13:23:39.886Z,2.37
2019-02-11T13:26:10.026Z,2.37
2019-02-11T13:28:40.198Z,2.20
2019-02-11T13:31:10.307Z,1.77
2019-02-11T13:33:40.360Z,1.40
2019-02-11T13:36:10.533Z,1.70
2019-02-11T13:38:40.941Z,1.77
2019-02-11T13:41:11.139Z,1.67
2019-02-11T13:43:41.411Z,1.33
2019-02-11T13:46:11.720Z,1.20
2019-02-11T13:48:42.571Z,1.30
2019-02-11T13:51:12.713Z,1.80
2019-02-11T13:53:44.230Z,1.70
2019-02-11T13:56:14.584Z,1.67
2019-02-11T13:58:44.733Z,2.03
2019-02-11T14:01:15.007Z,1.43
2019-02-11T14:03:45.050Z,1.83
2019-02-11T14:06:15.257Z,1.40
2019-02-11T14:08:45.391Z,1.60
2019-02-11T14:11:15.809Z,1.83
2019-02-11T14:14:01.708Z,1.70
2019-02-11T14:16:17.763Z,2.03
2019-02-11T14:18:47.910Z,1.90
2019-02-11T14:21:18.015Z,1.83
2019-02-11T14:23:48.166Z,2.13
2019-02-11T14:26:18.349Z,2.37
2019-02-11T14:28:49.604Z,2.03
2019-02-11T14:31:20.176Z,1.67
2019-02-11T14:33:50.869Z,1.90
2019-02-11T14:36:21.185Z,2.33
2019-02-11T14:38:51.537Z,2.00
2019-02-11T14:41:23.113Z,2.10
2019-02-11T14:43:53.301Z,1.97
2019-02-11T14:46:23.468Z,2.77
2019-02-11T14:48:54.353Z,2.30
2019-02-11T14:51:24.584Z,2.10
2019-02-11T14:53:54.863Z,2.00
2019-02-11T14:56:25.108Z,2.40
2019-02-11T14:58:55.223Z,2.30
2019-02-11T15:01:25.399Z,1.70
2019-02-11T15:03:55.547Z,2.23
2019-02-11T15:06:25.705Z,2.57
2019-02-11T15:08:55.883Z,2.50
2019-02-11T15:11:26.008Z,2.40
2019-02-11T15:13:56.081Z,1.90
2019-02-11T15:16:26.176Z,2.13
2019-02-11T15:18:57.679Z,2.07
2019-02-11T15:21:35.598Z,2.00
2019-02-11T15:24:08.103Z,2.23
2019-02-11T15:26:38.454Z,1.80
2019-02-11T15:29:09.300Z,2.03
2019-02-11T15:31:41.581Z,2.00
2019-02-11T15:34:12.096Z,1.83
2019-02-11T15:36:42.262Z,2.33
2019-02-11T15:39:13.935Z,2.10
2019-02-11T15:41:44.344Z,1.90
2019-02-11T15:44:18.245Z,2.00
2019-02-11T15:46:49.914Z,2.27
2019-02-11T15:49:46.119Z,2.10
2019-02-11T15:52:47.544Z,1.83
2019-02-11T15:55:24.976Z,2.47
2019-02-11T15:58:08.634Z,2.07
2019-02-11T16:00:39.711Z,2.23
2019-02-11T16:03:38.932Z,2.00
2019-02-11T16:06:17.561Z,1.97
2019-02-11T16:08:50.953Z,1.97
2019-02-11T16:11:30.310Z,1.90
2019-02-11T16:14:00.702Z,1.90
2019-02-11T16:16:31.167Z,2.60
2019-02-11T16:19:48.937Z,2.70
2019-02-11T16:22:19.296Z,4.60
2019-02-11T16:24:49.676Z,4.13
2019-02-11T16:27:20.054Z,2.60
2019-02-11T16:29:53.227Z,2.63
2019-02-11T16:33:11.121Z,3.13
2019-02-11T16:35:47.672Z,2.60
2019-02-11T16:38:18.169Z,2.57
2019-02-11T16:41:15.762Z,3.00
2019-02-11T16:44:20.300Z,2.37
2019-02-11T16:47:27.769Z,3.00
2019-02-11T16:53:00.412Z,6.30
2019-02-11T16:55:31.865Z,3.67
2019-02-11T16:58:02.569Z,3.70
2019-02-11T17:00:32.966Z,2.90
2019-02-11T17:03:03.331Z,3.67
2019-02-11T17:05:33.833Z,3.90
2019-02-11T17:08:04.351Z,3.83
2019-02-11T17:10:36.090Z,2.73
2019-02-11T17:13:06.727Z,2.57
2019-02-11T17:15:37.079Z,2.73
2019-02-11T17:18:26.255Z,2.80
2019-02-11T17:21:00.856Z,1.93
2019-02-11T17:23:31.875Z,1.83
2019-02-11T17:26:02.175Z,2.03
2019-02-11T17:28:32.367Z,1.80
2019-02-11T17:31:03.252Z,1.80
2019-02-11T17:33:33.631Z,1.97
2019-02-11T17:36:03.845Z,2.13
2019-02-11T17:38:34.480Z,1.60
2019-02-11T17:41:04.779Z,6.13
2019-02-11T17:43:35.125Z,3.07
2019-02-11T17:46:05.579Z,3.33
2019-02-11T17:48:35.887Z,2.63
2019-02-11T17:51:06.206Z,2.60
2019-02-11T17:53:37.151Z,2.63
2019-02-11T17:56:07.805Z,2.40
2019-02-11T17:58:38.085Z,2.43
2019-02-11T18:01:08.410Z,2.80
2019-02-11T18:03:56.505Z,3.10
2019-02-11T18:06:27.018Z,6.17
2019-02-11T18:08:59.365Z,3.40
2019-02-11T18:11:29.722Z,3.70
2019-02-11T18:14:00.422Z,3.10
2019-02-11T18:16:30.663Z,3.13
2019-02-11T18:19:01.837Z,3.03
2019-02-11T18:21:32.843Z,2.77
2019-02-11T18:24:03.296Z,2.90
2019-02-11T18:26:33.507Z,3.73
2019-02-11T18:29:04.175Z,3.47
2019-02-11T18:31:34.625Z,3.70
2019-02-11T18:34:04.846Z,3.57
2019-02-11T18:36:37.502Z,3.10
2019-02-11T18:39:10.939Z,3.77
2019-02-11T18:41:41.238Z,3.27
2019-02-11T18:44:11.335Z,3.30
2019-02-11T18:46:41.539Z,3.43
2019-02-11T18:49:11.658Z,3.30
2019-02-11T18:51:41.739Z,4.03
2019-02-11T18:54:11.884Z,3.97
2019-02-11T18:56:42.123Z,3.80
2019-02-11T18:59:12.349Z,4.27
2019-02-11T19:01:42.540Z,3.90
2019-02-11T19:04:12.606Z,8.93
2019-02-11T19:06:42.855Z,6.67
2019-02-11T19:09:15.592Z,3.57
2019-02-11T19:11:45.710Z,4.17
2019-02-11T19:14:15.823Z,3.80
2019-02-11T19:16:45.950Z,3.40
2019-02-11T19:19:16.047Z,4.30
2019-02-11T19:21:46.274Z,4.40
2019-02-11T19:24:16.619Z,4.93
2019-02-11T19:26:46.799Z,4.83
2019-02-11T19:29:16.924Z,4.20
2019-02-11T19:31:47.100Z,5.33
2019-02-11T19:34:17.332Z,5.17
2019-02-11T19:36:47.779Z,4.70
2019-02-11T19:39:18.244Z,5.63
2019-02-11T19:41:48.396Z,4.00
2019-02-11T19:44:19.014Z,5.27
2019-02-11T19:46:49.131Z,4.50
2019-02-11T19:49:19.359Z,5.00
2019-02-11T19:51:50.160Z,4.43
2019-02-11T19:54:20.266Z,4.90
2019-02-11T19:56:50.456Z,3.70
2019-02-11T19:59:20.914Z,3.87
2019-02-11T20:01:51.206Z,4.17
2019-02-11T20:04:21.718Z,3.50
2019-02-11T20:06:51.908Z,4.07
2019-02-11T20:09:22.061Z,4.07
2019-02-11T20:11:52.144Z,3.60
2019-02-11T20:14:22.332Z,3.77
2019-02-11T20:16:52.485Z,3.53
2019-02-11T20:19:23.039Z,3.60
2019-02-11T20:21:53.188Z,3.60
2019-02-11T20:24:23.474Z,5.47
2019-02-11T20:26:53.685Z,4.27
2019-02-11T20:29:23.839Z,4.27
2019-02-11T20:31:54.055Z,3.20
2019-02-11T20:34:25.214Z,3.60
2019-02-11T20:36:55.651Z,3.40
2019-02-11T20:39:25.764Z,3.33
2019-02-11T20:41:55.944Z,4.10
2019-02-11T20:44:26.164Z,3.37
2019-02-11T20:46:56.280Z,3.00
2019-02-11T20:49:26.453Z,3.33
2019-02-11T20:51:56.685Z,2.97
2019-02-11T20:54:26.840Z,3.70
2019-02-11T20:56:56.998Z,3.30
2019-02-11T20:59:27.203Z,4.00
2019-02-11T21:01:57.325Z,3.57
2019-02-11T21:04:27.382Z,3.20
2019-02-11T21:06:57.629Z,3.03
2019-02-11T21:09:28.091Z,3.37
2019-02-11T21:11:58.291Z,4.43
2019-02-11T21:14:28.492Z,3.70
2019-02-11T21:16:59.040Z,3.70
2019-02-11T21:19:29.303Z,4.10
2019-02-11T21:21:59.517Z,5.23
2019-02-11T21:24:29.764Z,4.60
2019-02-11T21:27:00.240Z,4.00
2019-02-11T21:29:30.535Z,4.10
2019-02-11T21:32:00.672Z,3.67
2019-02-11T21:34:30.948Z,4.37
2019-02-11T21:37:01.131Z,4.47
2019-02-11T21:39:31.333Z,4.13
2019-02-11T21:42:01.433Z,3.70
2019-02-11T21:44:31.778Z,3.30
2019-02-11T21:47:01.900Z,3.40
2019-02-11T21:49:32.085Z,3.17
2019-02-11T21:52:02.351Z,3.07
2019-02-11T21:54:32.536Z,3.60
2019-02-11T21:57:02.762Z,2.93
2019-02-11T21:59:33.937Z,3.20
2019-02-11T22:02:05.184Z,3.07
2019-02-11T22:04:35.739Z,3.00
2019-02-11T22:07:05.949Z,3.23
2019-02-11T22:09:36.163Z,3.60
2019-02-11T22:12:06.255Z,3.43
2019-02-11T22:14:36.404Z,2.90
2019-02-11T22:17:06.970Z,3.03
2019-02-11T22:19:37.047Z,2.53
2019-02-11T22:22:07.539Z,3.20
2019-02-11T22:24:37.756Z,3.40
2019-02-11T22:27:07.904Z,3.30
2019-02-11T22:29:38.125Z,4.13
2019-02-11T22:32:08.352Z,2.93
2019-02-11T22:34:38.576Z,3.07
2019-02-11T22:37:08.735Z,3.17
2019-02-11T22:39:38.945Z,3.23
2019-02-11T22:42:09.196Z,3.10
2019-02-11T22:44:39.747Z,3.10
2019-02-11T22:47:09.946Z,3.20
2019-02-11T22:49:40.344Z,3.30
2019-02-11T22:52:10.591Z,3.90
2019-02-11T22:54:40.709Z,3.20
2019-02-11T22:57:10.920Z,3.40
2019-02-11T22:59:41.114Z,3.30
2019-02-11T23:02:11.345Z,3.37
2019-02-11T23:04:41.587Z,3.40
2019-02-11T23:07:11.820Z,3.27
2019-02-11T23:09:41.960Z,3.00
2019-02-11T23:12:12.161Z,3.70
2019-02-11T23:14:42.331Z,3.60
2019-02-11T23:17:12.570Z,3.53
2019-02-11T23:19:42.967Z,3.60
2019-02-11T23:22:13.578Z,4.17
2019-02-11T23:24:44.011Z,3.50
2019-02-11T23:27:14.151Z,3.77
2019-02-11T23:29:44.478Z,3.60
2019-02-11T23:32:14.623Z,3.30
2019-02-11T23:34:44.881Z,3.43
2019-02-11T23:37:14.998Z,3.27
2019-02-11T23:39:45.203Z,4.10
2019-02-11T23:42:15.423Z,3.20
2019-02-11T23:44:45.619Z,3.30
2019-02-11T23:47:15.864Z,3.33
2019-02-11T23:49:46.034Z,3.30
2019-02-11T23:52:16.201Z,3.83
2019-02-11T23:54:46.401Z,4.00
2019-02-11T23:57:16.634Z,3.10
2019-02-11T23:59:47.213Z,3.53
